My webcam more information My webcam


Thunder radar more information blitzortung!


Rain radar more information rain snow radar


Visit our other weather sites:

Template documentation
and downloads

And another site



Nearby METAR Reports

   
KAVP - Albrightsville, PA
Updated: Jan 19 2019 8:54 am
Partly Cloudy  
Partly Cloudy  
   Wind: NE 4.6 mph
Wind: NE 4.6 mph
Temperature: 30.2°F
Wind Chill: 24.8°F
Dew Point: 19.4°F
Humidity: 64%
Barometer: 30.19 inHg
Clouds: Partly Cloudy
Visibility: 9 mi
Cloud details: Partly Cloudy 1372 m
KAVP 191354Z 05004KT 9SM SCT045 M01/M07 A3019 RMK AO2 SLP230 T10061067
KIWA - Apache Junction, AZ
Updated: Jan 19 2019 8:47 am
Clear  
Clear  
   Wind: ESE 4.6 mph
Wind: ESE 4.6 mph
Temperature: 42.8°F
Wind Chill: 39.2°F
Dew Point: 35.6°F
Humidity: 76%
Barometer: 30.3 inHg
Clouds: Clear
Visibility: 20 mi
Cloud details: Clear
KIWA 191347Z 12004KT 20SM SKC 06/02 A3030
KPKB - Blue Rock, OH
Updated: Jan 19 2019 8:53 am
Overcast  
Overcast  
   Wind: East 8.1 mph
Wind: East 8.1 mph
Temperature: 35.6°F
Wind Chill: 28.4°F
Dew Point: 28.4°F
Humidity: 75%
Barometer: 29.96 inHg
Clouds: Overcast
Visibility: 10 mi
Cloud details: Overcast 1250 m
KPKB 191353Z 08007KT 10SM OVC041 02/M02 A2996 RMK AO2 SLP150 T00171017
KHVN - Branford, CT
Updated: Jan 19 2019 8:53 am
Mostly Cloudy  
Mostly Cloudy  
   Wind: North 9.2 mph
Wind: North 9.2 mph
Temperature: 33.8°F
Wind Chill: 26.6°F
Dew Point: 19.4°F
Humidity: 56%
Barometer: 30.27 inHg
Clouds: Mostly Cloudy
Visibility: 10 mi
Cloud details: Partly Cloudy 1219 m,
Mostly Cloudy 7620 m
KHVN 191353Z 36008KT 10SM SCT040 BKN250 01/M07 A3027 RMK AO2 SLP250 T00111072
KPHX - Carefree, AZ
Updated: Jan 19 2019 8:51 am
Few Clouds  
Few Clouds  
   Wind: North 4.6 mph
Wind: North 4.6 mph
Temperature: 48.2°F
Wind Chill: 46.4°F
Dew Point: 35.6°F
Humidity: 62%
Barometer: 30.27 inHg
Clouds: Few Clouds
Visibility: 10 mi
Cloud details: Few Clouds 7620 m
KPHX 191351Z 36004KT 10SM FEW250 09/02 A3027 RMK AO2 SLP246 T00890017 $
 

Script developed by  Saratoga-weather.org Adapted for the template by  Weerstation Leuven

You find our weather info also at:

WeatherCloud

Weather Underground

Citizen Weather Observer Program (CWOP)

HAMweather, WeatherForYou, PWS Weather

Anything Weather